Time;durP1;ratioP1;P1;durP2;ratioP2;P2;SDS_P1;SDS_P2;PMS_P1;PMS_P2;Temp;Humidity;BMP_temperature;BMP_pressure;BME280_temperature;BME280_humidity;BME280_pressure;Samples;Min_cycle;Max_cycle;Signal;HPM_P1;HPM_P2
2023/12/14 00:01:35;;;;;;;21.23;12.13;;;;;;;5.74;100.00;97445.53;5010676;28;20183;-57
2023/12/14 00:04:02;;;;;;;17.83;12.00;;;;;;;5.55;100.00;97422.81;5010605;28;20211;-57
2023/12/14 00:06:28;;;;;;;16.50;11.73;;;;;;;5.63;100.00;97437.72;5010630;28;20175;-57
2023/12/14 00:08:53;;;;;;;16.88;10.32;;;;;;;4.93;100.00;97317.47;5044388;28;20193;-57
2023/12/14 00:11:18;;;;;;;15.13;10.18;;;;;;;5.28;100.00;97362.19;5052609;28;20197;-57
2023/12/14 00:13:44;;;;;;;15.30;9.95;;;;;;;5.73;100.00;97459.31;5052536;28;20327;-57
2023/12/14 00:16:10;;;;;;;14.88;9.38;;;;;;;5.61;100.00;97450.66;5049884;28;20603;-58
2023/12/14 00:18:53;;;;;;;16.20;10.05;;;;;;;5.34;100.00;97415.66;5049788;28;20312;-57
2023/12/14 00:21:27;;;;;;;17.95;10.98;;;;;;;5.65;100.00;97452.09;5050046;28;20182;-57
2023/12/14 00:23:52;;;;;;;18.10;10.95;;;;;;;5.65;100.00;97438.47;5049921;28;20211;-57
2023/12/14 00:26:17;;;;;;;17.50;10.45;;;;;;;5.38;100.00;97387.19;5050148;28;20181;-57
2023/12/14 00:28:43;;;;;;;18.17;10.45;;;;;;;5.79;100.00;97464.88;5049861;28;20182;-57
2023/12/14 00:31:20;;;;;;;19.40;12.80;;;;;;;5.19;100.00;97360.25;5029630;28;20352;-57
2023/12/14 00:33:46;;;;;;;20.25;12.15;;;;;;;5.46;100.00;97407.19;5029928;28;20213;-57
2023/12/14 00:36:18;;;;;;;21.30;12.60;;;;;;;5.16;100.00;97371.50;5030036;28;20648;-57
2023/12/14 00:38:43;;;;;;;22.17;13.60;;;;;;;5.45;100.00;97414.06;5009888;28;20281;-57
2023/12/14 00:41:09;;;;;;;23.15;13.88;;;;;;;5.31;100.00;97400.47;5009890;28;20683;-57
2023/12/14 00:43:34;;;;;;;23.15;13.30;;;;;;;5.11;100.00;97367.59;5009136;28;20209;-57
2023/12/14 00:45:59;;;;;;;21.92;13.15;;;;;;;5.52;100.00;97440.13;5010321;28;20179;-58
2023/12/14 00:48:25;;;;;;;23.98;15.25;;;;;;;5.31;100.00;97401.28;5029571;28;20187;-58
2023/12/14 00:50:50;;;;;;;21.98;14.38;;;;;;;5.65;100.00;97452.09;5029437;28;20276;-58
2023/12/14 00:53:22;;;;;;;18.60;13.40;;;;;;;5.37;100.00;97400.91;5029520;28;20194;-58
2023/12/14 00:55:48;;;;;;;23.45;13.88;;;;;;;5.57;100.00;97440.66;4996909;28;20784;-58
2023/12/14 00:58:14;;;;;;;23.63;14.68;;;;;;;5.42;100.00;97428.84;4996449;28;20281;-58
2023/12/14 01:00:39;;;;;;;24.65;13.98;;;;;;;5.15;100.00;97379.28;5029363;28;20182;-57
2023/12/14 01:03:05;;;;;;;28.02;15.40;;;;;;;5.43;100.00;97415.09;5047086;28;20186;-58
2023/12/14 01:05:30;;;;;;;21.75;14.20;;;;;;;5.57;100.00;97433.81;5049210;28;20252;-57
2023/12/14 01:07:56;;;;;;;27.27;14.43;;;;;;;5.61;100.00;97417.31;5049192;28;20177;-57
2023/12/14 01:10:22;;;;;;;25.73;13.27;;;;;;;5.41;100.00;97381.84;5050654;28;20209;-57
2023/12/14 01:12:47;;;;;;;24.08;14.25;;;;;;;5.41;100.00;97376.72;5051547;28;20189;-57
2023/12/14 01:15:13;;;;;;;22.90;15.15;;;;;;;5.35;100.00;97369.41;5051502;28;20174;-58
2023/12/14 01:17:38;;;;;;;22.75;14.15;;;;;;;5.18;100.00;97328.66;5051391;28;20284;-57
2023/12/14 01:20:07;;;;;;;24.00;14.50;;;;;;;5.25;100.00;97329.09;5028986;28;20186;-58
2023/12/14 01:22:33;;;;;;;20.23;13.55;;;;;;;5.52;100.00;97368.31;5029124;28;20657;-57
2023/12/14 01:24:59;;;;;;;21.45;12.25;;;;;;;5.79;100.00;97398.16;5029027;28;20190;-57
2023/12/14 01:27:25;;;;;;;21.10;12.65;;;;;;;5.66;100.00;97371.63;5029038;28;20193;-58
2023/12/14 01:29:50;;;;;;;20.08;12.00;;;;;;;5.21;100.00;97305.38;5028890;28;20202;-58
2023/12/14 01:32:16;;;;;;;20.10;12.30;;;;;;;5.17;100.00;97298.81;5029067;28;20194;-58
2023/12/14 01:34:41;;;;;;;24.67;13.27;;;;;;;5.44;100.00;97360.31;5029243;28;20248;-58
2023/12/14 01:37:07;;;;;;;18.90;12.40;;;;;;;5.73;100.00;97411.38;5028952;28;20187;-58
2023/12/14 01:39:33;;;;;;;20.38;11.73;;;;;;;5.40;100.00;97351.16;5009098;28;20203;-58
2023/12/14 01:41:58;;;;;;;25.23;13.80;;;;;;;5.80;100.00;97404.94;5009204;28;20259;-58
2023/12/14 01:44:24;;;;;;;15.80;10.50;;;;;;;5.70;100.00;97401.31;5009155;28;20240;-58
2023/12/14 01:46:50;;;;;;;16.45;10.25;;;;;;;5.24;100.00;97325.69;5009033;28;20684;-57
2023/12/14 01:49:15;;;;;;;10.82;8.75;;;;;;;5.20;100.00;97313.97;4969905;28;20188;-58
2023/12/14 01:51:41;;;;;;;11.77;8.38;;;;;;;5.68;100.00;97390.31;4984788;28;20311;-57
2023/12/14 01:54:06;;;;;;;16.85;9.10;;;;;;;5.47;100.00;97355.00;4989465;28;20675;-58
2023/12/14 01:56:32;;;;;;;13.70;7.85;;;;;;;5.69;100.00;97399.66;4993404;28;20352;-58
2023/12/14 01:58:57;;;;;;;12.63;8.20;;;;;;;5.76;100.00;97407.78;4993350;28;20210;-58
2023/12/14 02:01:39;;;;;;;12.27;8.18;;;;;;;5.66;100.00;97396.47;4993649;28;20195;-57
2023/12/14 02:04:06;;;;;;;13.52;8.40;;;;;;;5.22;100.00;97314.72;4993333;28;20191;-58
2023/12/14 02:06:32;;;;;;;11.48;7.25;;;;;;;5.34;100.00;97344.69;4993305;28;20211;-58
2023/12/14 02:08:57;;;;;;;12.38;8.02;;;;;;;5.29;100.00;97336.47;4993223;28;20725;-58
2023/12/14 02:11:23;;;;;;;13.38;8.88;;;;;;;5.47;100.00;97373.75;5009946;28;20630;-57
2023/12/14 02:13:48;;;;;;;16.23;9.45;;;;;;;5.11;100.00;97327.41;5012733;28;20194;-58
2023/12/14 02:16:14;;;;;;;14.45;9.02;;;;;;;5.09;100.00;97313.88;5012758;28;20656;-58
2023/12/14 02:18:40;;;;;;;13.85;8.02;;;;;;;5.52;100.00;97368.31;5012414;28;20266;-58
2023/12/14 02:21:06;;;;;;;12.52;8.27;;;;;;;5.28;100.00;97334.84;5012648;28;20274;-58
2023/12/14 02:23:31;;;;;;;13.98;8.52;;;;;;;5.14;100.00;97319.50;5012648;28;20183;-58
2023/12/14 02:25:57;;;;;;;9.93;7.65;;;;;;;5.74;100.00;97407.88;5021012;28;20194;-58
2023/12/14 02:28:22;;;;;;;13.30;8.75;;;;;;;5.63;100.00;97379.53;5054626;28;20174;-58
2023/12/14 02:30:48;;;;;;;22.50;13.27;;;;;;;5.59;100.00;97354.19;5054508;28;20197;-58
2023/12/14 02:33:15;;;;;;;21.70;13.18;;;;;;;5.86;100.00;97394.28;5035598;28;20194;-58
2023/12/14 02:35:40;;;;;;;22.13;12.38;;;;;;;5.74;100.00;97373.69;5054514;28;20174;-58
2023/12/14 02:38:06;;;;;;;19.70;13.30;;;;;;;5.31;100.00;97303.84;5054417;28;20671;-58
2023/12/14 02:40:31;;;;;;;21.00;13.02;;;;;;;5.32;100.00;97297.00;5054401;28;20178;-58
2023/12/14 02:42:57;;;;;;;20.10;12.77;;;;;;;5.75;100.00;97372.75;5054350;28;20652;-58
2023/12/14 02:45:22;;;;;;;20.88;13.35;;;;;;;5.41;100.00;97322.84;5054278;28;20270;-58
2023/12/14 02:47:49;;;;;;;24.33;12.45;;;;;;;5.42;100.00;97339.88;5054262;28;20185;-57
2023/12/14 02:50:15;;;;;;;21.55;13.10;;;;;;;5.44;100.00;97345.75;5054103;28;20201;-58
2023/12/14 02:52:40;;;;;;;18.60;12.18;;;;;;;5.61;100.00;97394.22;5054162;28;20182;-58
2023/12/14 02:55:06;;;;;;;18.17;11.23;;;;;;;5.69;100.00;97397.09;5054123;28;20169;-58
2023/12/14 02:57:32;;;;;;;20.35;12.48;;;;;;;5.35;100.00;97333.50;5054137;28;20652;-58
2023/12/14 02:59:57;;;;;;;17.23;10.85;;;;;;;5.27;100.00;97325.50;5054018;28;20235;-58
2023/12/14 03:02:23;;;;;;;13.13;8.80;;;;;;;5.54;100.00;97403.22;5053985;28;20187;-58
2023/12/14 03:04:48;;;;;;;13.10;8.65;;;;;;;5.36;100.00;97386.44;5053871;28;20616;-57
2023/12/14 03:07:14;;;;;;;13.93;9.70;;;;;;;5.15;100.00;97328.84;5052971;28;20173;-57
2023/12/14 03:09:44;;;;;;;16.23;10.02;;;;;;;5.23;100.00;97342.00;5053707;28;20211;-58
2023/12/14 03:12:10;;;;;;;13.60;8.77;;;;;;;4.97;100.00;97306.97;5053810;28;20261;-58
2023/12/14 03:14:35;;;;;;;14.50;8.68;;;;;;;5.15;100.00;97336.56;5053750;28;20174;-57
2023/12/14 03:17:02;;;;;;;13.13;8.85;;;;;;;5.63;100.00;97412.88;5053584;28;20181;-57
2023/12/14 03:19:28;;;;;;;13.05;9.48;;;;;;;5.44;100.00;97385.94;5053781;28;20198;-57
2023/12/14 03:21:53;;;;;;;12.82;8.88;;;;;;;5.11;100.00;97329.97;5053567;28;20193;-58
2023/12/14 03:24:19;;;;;;;9.90;7.25;;;;;;;5.60;100.00;97418.19;5053590;28;20679;-58
2023/12/14 03:26:44;;;;;;;10.70;7.63;;;;;;;5.57;100.00;97412.44;5053298;28;20178;-58
2023/12/14 03:29:10;;;;;;;11.63;7.90;;;;;;;5.21;100.00;97337.88;5053425;28;20177;-57
2023/12/14 03:31:35;;;;;;;10.15;7.10;;;;;;;4.70;100.00;97265.16;5053379;28;20240;-58
2023/12/14 03:34:01;;;;;;;10.90;8.07;;;;;;;5.53;100.00;97386.19;5053310;28;20198;-58
2023/12/14 03:36:27;;;;;;;11.77;8.07;;;;;;;5.19;100.00;97334.59;5053387;28;20177;-58
2023/12/14 03:38:53;;;;;;;9.68;7.32;;;;;;;5.56;100.00;97406.50;5053256;28;20174;-58
2023/12/14 03:41:18;;;;;;;12.65;7.72;;;;;;;5.61;100.00;97391.66;5053241;28;20652;-58
2023/12/14 03:43:44;;;;;;;12.18;7.70;;;;;;;5.25;100.00;97326.53;5053269;28;20541;-58
2023/12/14 03:46:10;;;;;;;13.25;8.20;;;;;;;5.14;100.00;97301.56;5053149;28;20213;-56
2023/12/14 03:48:35;;;;;;;13.75;8.57;;;;;;;5.51;100.00;97377.78;5053075;28;20210;-58
2023/12/14 03:51:05;;;;;;;14.80;9.45;;;;;;;5.38;100.00;97341.03;5052938;28;20197;-58
2023/12/14 03:53:31;;;;;;;16.98;9.98;;;;;;;5.63;100.00;97356.44;5052951;28;20189;-58
2023/12/14 03:56:00;;;;;;;13.73;8.15;;;;;;;5.72;100.00;97366.09;5030448;28;20282;-57
2023/12/14 03:58:26;;;;;;;12.90;7.70;;;;;;;5.76;100.00;97387.25;5030496;28;20182;-56
2023/12/14 04:00:52;;;;;;;14.43;8.90;;;;;;;5.38;100.00;97340.19;5030496;28;20197;-57
2023/12/14 04:03:17;;;;;;;12.38;8.50;;;;;;;5.40;100.00;97349.44;5030537;28;20175;-56
2023/12/14 04:05:44;;;;;;;10.27;7.75;;;;;;;5.44;100.00;97363.69;5030469;28;20191;-57
2023/12/14 04:08:09;;;;;;;12.00;7.25;;;;;;;5.30;100.00;97332.97;5030409;28;20618;-57
2023/12/14 04:10:35;;;;;;;13.13;8.98;;;;;;;5.53;100.00;97350.25;5030233;28;20214;-57
2023/12/14 04:13:01;;;;;;;20.35;12.52;;;;;;;5.28;100.00;97298.94;5030262;28;20240;-57
2023/12/14 04:15:26;;;;;;;21.15;13.00;;;;;;;5.71;100.00;97369.59;5030522;28;20190;-57
2023/12/14 04:17:52;;;;;;;16.02;10.55;;;;;;;5.55;100.00;97319.38;5030033;28;20217;-57
2023/12/14 04:20:17;;;;;;;18.95;10.65;;;;;;;5.78;100.00;97363.13;5030239;28;20178;-57
2023/12/14 04:22:44;;;;;;;13.02;10.05;;;;;;;5.65;100.00;97339.19;5030073;28;20683;-57
2023/12/14 04:25:09;;;;;;;12.75;8.32;;;;;;;5.45;100.00;97324.31;5030110;28;20228;-56
2023/12/14 04:27:35;;;;;;;13.13;9.20;;;;;;;5.34;100.00;97313.09;5047075;28;20201;-57
2023/12/14 04:30:00;;;;;;;16.67;9.50;;;;;;;5.54;100.00;97361.34;5052146;28;20235;-57
2023/12/14 04:32:26;;;;;;;24.15;11.07;;;;;;;5.41;100.00;97330.53;5052343;28;20663;-57
2023/12/14 04:34:52;;;;;;;14.40;9.30;;;;;;;5.35;100.00;97330.94;5052176;28;20250;-56
2023/12/14 04:37:17;;;;;;;13.35;8.65;;;;;;;5.53;100.00;97368.22;5052157;28;20174;-56
2023/12/14 04:39:43;;;;;;;14.25;8.43;;;;;;;5.33;100.00;97322.53;5052132;28;20249;-56
2023/12/14 04:42:08;;;;;;;13.57;8.88;;;;;;;5.16;100.00;97302.28;5052081;28;20609;-57
2023/12/14 04:44:34;;;;;;;15.93;9.30;;;;;;;5.67;100.00;97404.09;5052122;28;20261;-56
2023/12/14 04:46:59;;;;;;;19.17;11.15;;;;;;;5.52;100.00;97381.13;5051972;28;20239;-57
2023/12/14 04:49:25;;;;;;;21.52;12.93;;;;;;;5.21;100.00;97318.22;5051942;28;20632;-56
2023/12/14 04:51:50;;;;;;;21.70;12.93;;;;;;;5.17;100.00;97311.63;5051874;28;20229;-56
2023/12/14 04:54:16;;;;;;;30.38;18.02;;;;;;;5.09;100.00;97308.75;5051626;28;20170;-57
2023/12/14 04:56:44;;;;;;;27.08;16.13;;;;;;;5.34;100.00;97351.56;5051879;28;20249;-57
2023/12/14 04:59:09;;;;;;;25.75;14.80;;;;;;;5.33;100.00;97361.00;5051538;28;20690;-57
2023/12/14 05:01:35;;;;;;;20.55;12.38;;;;;;;5.04;100.00;97300.53;5051770;28;20170;-57
2023/12/14 05:04:00;;;;;;;20.83;12.40;;;;;;;5.29;100.00;97345.88;5051690;28;20693;-57
2023/12/14 05:06:26;;;;;;;22.80;13.02;;;;;;;5.20;100.00;97347.31;5051645;28;20547;-57
2023/12/14 05:08:51;;;;;;;23.65;15.32;;;;;;;5.14;100.00;97327.19;5051635;28;20505;-57
2023/12/14 05:11:17;;;;;;;22.83;16.58;;;;;;;5.25;100.00;97339.34;5051572;28;20205;-57
2023/12/14 05:13:42;;;;;;;28.08;15.77;;;;;;;4.95;100.00;97303.66;5051581;28;20169;-57
2023/12/14 05:16:13;;;;;;;19.45;14.57;;;;;;;5.04;100.00;97345.81;5051593;28;20183;-57
2023/12/14 05:18:39;;;;;;;17.50;13.43;;;;;;;5.08;100.00;97352.41;5051593;28;20205;-57
2023/12/14 05:21:05;;;;;;;19.95;13.68;;;;;;;4.86;100.00;97300.88;5051535;28;20563;-56
2023/12/14 05:23:30;;;;;;;35.05;19.90;;;;;;;5.10;100.00;97338.56;5051536;28;20573;-57
2023/12/14 05:25:56;;;;;;;16.83;9.80;;;;;;;4.91;100.00;97304.75;5051186;28;20583;-57
2023/12/14 05:28:21;;;;;;;11.73;8.80;;;;;;;5.35;100.00;97371.97;5051394;28;20173;-56
2023/12/14 05:30:47;;;;;;;12.35;8.98;;;;;;;4.76;100.00;97280.13;5050565;28;20613;-57
2023/12/14 05:33:12;;;;;;;16.13;12.02;;;;;;;5.16;100.00;97376.66;5051667;28;20180;-57
2023/12/14 05:35:38;;;;;;;23.23;14.52;;;;;;;5.22;100.00;97375.41;5051359;28;20170;-57
2023/12/14 05:38:03;;;;;;;19.02;13.30;;;;;;;4.79;100.00;97338.84;5051315;28;20169;-57
2023/12/14 05:40:28;;;;;;;24.40;14.32;;;;;;;5.14;100.00;97393.84;5051620;28;20257;-57
2023/12/14 05:42:54;;;;;;;24.75;16.20;;;;;;;4.74;100.00;97317.00;5051303;28;20184;-57
2023/12/14 05:45:20;;;;;;;53.75;27.48;;;;;;;4.88;100.00;97330.59;5051305;28;20181;-57
2023/12/14 05:47:46;;;;;;;26.58;16.08;;;;;;;5.24;100.00;97394.09;5051259;28;20173;-56
2023/12/14 05:50:12;;;;;;;20.77;13.77;;;;;;;4.82;100.00;97359.16;5048494;28;20214;-57
2023/12/14 05:52:38;;;;;;;19.27;12.52;;;;;;;4.97;100.00;97371.03;5048173;28;20229;-57
2023/12/14 05:55:04;;;;;;;23.27;14.38;;;;;;;5.25;100.00;97416.25;5048754;28;20275;-57
2023/12/14 05:57:30;;;;;;;19.77;12.75;;;;;;;5.00;100.00;97393.06;5048761;28;20810;-57
2023/12/14 05:59:55;;;;;;;15.18;11.20;;;;;;;4.94;100.00;97416.50;5048720;28;20256;-57
2023/12/14 06:02:22;;;;;;;17.70;12.27;;;;;;;4.68;100.00;97359.22;5048591;28;20276;-57
2023/12/14 06:04:47;;;;;;;20.63;12.70;;;;;;;4.38;100.00;97314.19;5048676;28;20319;-57
2023/12/14 06:07:15;;;;;;;18.20;11.25;;;;;;;4.89;100.00;97383.50;5048618;28;20181;-57
2023/12/14 06:09:41;;;;;;;15.85;10.93;;;;;;;4.37;100.00;97318.47;5048465;28;20235;-57
2023/12/14 06:12:06;;;;;;;31.33;16.25;;;;;;;5.04;100.00;97400.47;5048868;28;20181;-57
2023/12/14 06:14:32;;;;;;;22.50;12.88;;;;;;;4.95;100.00;97357.47;5048389;28;20186;-57
2023/12/14 06:16:58;;;;;;;41.85;22.92;;;;;;;5.15;100.00;97397.25;5048808;28;20197;-57
2023/12/14 06:19:24;;;;;;;30.73;19.67;;;;;;;4.86;100.00;97345.25;5047552;28;20640;-57
2023/12/14 06:21:49;;;;;;;27.83;16.27;;;;;;;5.03;100.00;97362.97;5048176;28;20634;-57
2023/12/14 06:24:15;;;;;;;25.83;15.15;;;;;;;4.90;100.00;97363.81;5048344;28;20555;-57
2023/12/14 06:26:43;;;;;;;27.92;17.17;;;;;;;5.23;100.00;97412.94;5048342;28;20193;-57
2023/12/14 06:29:12;;;;;;;62.53;32.25;;;;;;;4.74;100.00;97322.97;5048241;28;20236;-57
2023/12/14 06:31:38;;;;;;;71.45;36.47;;;;;;;4.69;100.00;97314.75;5047987;28;20212;-58
2023/12/14 06:34:05;;;;;;;61.42;32.67;;;;;;;5.39;100.00;97419.59;5048606;28;20230;-57
2023/12/14 06:36:31;;;;;;;45.83;26.23;;;;;;;4.79;100.00;97320.91;5048312;28;20248;-57
2023/12/14 06:39:00;;;;;;;40.05;20.98;;;;;;;4.89;100.00;97346.81;5048192;28;20845;-57
2023/12/14 06:41:27;;;;;;;33.28;20.00;;;;;;;5.40;100.00;97421.25;5048976;28;20189;-58
2023/12/14 06:43:52;;;;;;;33.63;19.35;;;;;;;5.28;100.00;97401.50;5051939;28;20271;-57
2023/12/14 06:46:18;;;;;;;34.88;20.02;;;;;;;4.97;100.00;97335.16;5019138;28;20230;-57
2023/12/14 06:48:45;;;;;;;33.33;18.63;;;;;;;4.59;100.00;97293.19;5012099;28;20568;-57
2023/12/14 06:51:11;;;;;;;34.80;18.75;;;;;;;5.12;100.00;97367.50;5012217;28;20654;-57
2023/12/14 06:53:39;;;;;;;31.10;18.40;;;;;;;5.40;100.00;97403.28;5030180;28;20301;-57
2023/12/14 06:56:04;;;;;;;36.85;23.23;;;;;;;5.63;100.00;97419.75;5034438;28;20175;-57
2023/12/14 06:58:31;;;;;;;36.92;22.30;;;;;;;5.43;100.00;97368.91;5042092;28;20194;-57
2023/12/14 07:00:57;;;;;;;35.80;21.70;;;;;;;5.71;100.00;97410.63;5053776;28;20726;-57
2023/12/14 07:03:22;;;;;;;35.85;22.25;;;;;;;5.85;100.00;97428.56;5053781;28;20170;-57
2023/12/14 07:05:48;;;;;;;33.38;21.85;;;;;;;5.36;100.00;97336.91;5053608;28;20213;-57
2023/12/14 07:08:13;;;;;;;38.30;23.20;;;;;;;5.92;100.00;97422.13;5053760;28;20587;-58
2023/12/14 07:10:41;;;;;;;32.78;19.88;;;;;;;5.92;100.00;97408.44;5053655;28;20578;-57
2023/12/14 07:13:07;;;;;;;34.50;21.77;;;;;;;5.85;100.00;97381.53;5053562;28;20182;-58
2023/12/14 07:15:32;;;;;;;39.85;21.25;;;;;;;5.70;100.00;97332.03;5053572;28;20633;-57
2023/12/14 07:17:57;;;;;;;31.63;21.05;;;;;;;6.08;100.00;97399.66;5053149;28;20197;-58
2023/12/14 07:20:23;;;;;;;34.10;21.90;;;;;;;6.09;100.00;97375.59;5053448;28;20679;-58
2023/12/14 07:22:48;;;;;;;42.67;23.67;;;;;;;6.28;100.00;97381.13;5053388;28;20558;-58
2023/12/14 07:25:14;;;;;;;35.15;22.83;;;;;;;6.24;100.00;97358.34;5053384;28;20645;-58
2023/12/14 07:27:39;;;;;;;36.17;22.45;;;;;;;6.49;100.00;97395.09;5053118;28;20174;-58
2023/12/14 07:30:06;;;;;;;32.78;22.20;;;;;;;5.98;100.00;97315.63;5052960;28;20255;-58
2023/12/14 07:32:31;;;;;;;36.25;22.92;;;;;;;6.02;100.00;97325.59;5052935;28;20667;-57
2023/12/14 07:34:56;;;;;;;34.70;22.05;;;;;;;6.55;100.00;97404.13;5053219;28;20201;-58
2023/12/14 07:37:22;;;;;;;43.00;26.13;;;;;;;6.37;100.00;97362.56;5053109;28;20578;-58
2023/12/14 07:39:47;;;;;;;46.30;28.77;;;;;;;6.44;100.00;97368.06;5053067;28;20170;-58
2023/12/14 07:42:19;;;;;;;51.22;28.65;;;;;;;6.58;100.00;97393.66;5053074;28;20174;-58
2023/12/14 07:44:44;;;;;;;50.58;31.48;;;;;;;6.39;100.00;97352.16;5053065;28;20708;-57
2023/12/14 07:47:10;;;;;;;50.42;30.38;;;;;;;6.65;100.00;97395.66;5050336;28;20190;-57
2023/12/14 07:49:35;;;;;;;50.15;31.50;;;;;;;6.42;100.00;97339.91;5050477;28;20182;-57
2023/12/14 07:52:01;;;;;;;52.88;33.75;;;;;;;6.66;100.00;97374.22;5050034;28;20295;-58
2023/12/14 07:54:26;;;;;;;74.07;40.25;;;;;;;6.83;100.00;97383.31;5050178;28;20174;-58
2023/12/14 07:56:52;;;;;;;66.20;40.35;;;;;;;6.83;100.00;97376.41;5050274;28;20182;-58
2023/12/14 07:59:18;;;;;;;77.15;42.85;;;;;;;7.13;100.00;97438.56;5050321;28;20189;-58
2023/12/14 08:01:43;;;;;;;83.55;47.70;;;;;;;7.29;100.00;97453.75;5050531;28;20699;-58
2023/12/14 08:04:11;;;;;;;80.28;47.53;;;;;;;7.21;100.00;97436.25;5050120;28;20598;-58
2023/12/14 08:06:38;;;;;;;84.47;50.88;;;;;;;6.86;100.00;97373.63;5050139;28;20247;-58
2023/12/14 08:09:05;;;;;;;93.70;49.47;;;;;;;6.80;100.00;97365.50;5029861;28;20197;-58
2023/12/14 08:11:31;;;;;;;70.57;44.42;;;;;;;7.34;100.00;97460.19;5029916;28;20221;-58
2023/12/14 08:13:56;;;;;;;67.05;42.45;;;;;;;7.32;100.00;97459.47;5029934;28;20182;-57
2023/12/14 08:16:22;;;;;;;61.53;38.47;;;;;;;6.90;100.00;97385.34;5030261;28;20191;-58
2023/12/14 08:18:48;;;;;;;55.92;36.15;;;;;;;7.06;100.00;97385.09;5029906;28;20203;-58
2023/12/14 08:21:14;;;;;;;57.83;34.83;;;;;;;7.35;100.00;97443.00;5029263;28;20197;-58
2023/12/14 08:23:39;;;;;;;60.20;35.63;;;;;;;6.76;100.00;97357.19;5031967;28;20190;-58
2023/12/14 08:26:06;;;;;;;56.90;35.08;;;;;;;7.17;100.00;97423.72;5049740;28;20569;-58
2023/12/14 08:28:31;;;;;;;58.90;36.30;;;;;;;6.96;100.00;97404.66;5049656;28;20687;-58
2023/12/14 08:30:58;;;;;;;56.63;34.75;;;;;;;7.18;100.00;97444.19;5049531;28;20210;-58
2023/12/14 08:33:24;;;;;;;61.65;35.40;;;;;;;6.85;100.00;97417.44;5049498;28;20174;-57
2023/12/14 08:35:50;;;;;;;53.00;32.85;;;;;;;6.77;100.00;97397.41;5049489;28;20239;-57
2023/12/14 08:38:16;;;;;;;61.33;35.72;;;;;;;6.77;100.00;97417.97;5049455;28;20216;-57
2023/12/14 08:40:42;;;;;;;54.55;33.65;;;;;;;6.48;100.00;97366.94;5050993;28;20197;-57
2023/12/14 08:43:07;;;;;;;61.45;35.70;;;;;;;6.71;100.00;97400.38;5049176;28;20177;-57
2023/12/14 08:45:33;;;;;;;66.45;33.80;;;;;;;6.61;100.00;97398.56;5049321;28;20189;-58
2023/12/14 08:47:58;;;;;;;59.50;33.78;;;;;;;7.02;100.00;97453.09;5049568;28;20185;-57
2023/12/14 08:50:26;;;;;;;59.45;34.13;;;;;;;7.10;100.00;97464.47;5049177;28;20220;-57
2023/12/14 08:52:52;;;;;;;52.58;33.38;;;;;;;6.88;100.00;97406.94;5049090;28;20616;-57
2023/12/14 08:55:18;;;;;;;53.15;31.42;;;;;;;6.98;100.00;97421.63;5049170;28;20212;-57
2023/12/14 08:57:43;;;;;;;54.45;33.40;;;;;;;7.23;100.00;97462.69;5049135;28;20217;-57
2023/12/14 09:00:10;;;;;;;52.33;31.17;;;;;;;6.75;100.00;97388.97;5049083;28;20195;-58
2023/12/14 09:02:36;;;;;;;61.30;32.22;;;;;;;7.16;100.00;97473.53;5048930;28;20568;-56
2023/12/14 09:05:02;;;;;;;55.13;31.40;;;;;;;6.90;100.00;97402.50;5048295;28;20206;-56
2023/12/14 09:07:27;;;;;;;56.35;31.70;;;;;;;7.01;100.00;97393.13;5048997;28;20181;-57
2023/12/14 09:09:53;;;;;;;53.25;28.55;;;;;;;7.05;100.00;97373.97;5068580;28;20223;-57
2023/12/14 09:12:19;;;;;;;53.28;30.80;;;;;;;7.49;100.00;97443.66;5068609;28;20627;-57
2023/12/14 09:14:44;;;;;;;51.63;30.55;;;;;;;7.70;100.00;97451.59;5068799;28;20185;-56
2023/12/14 09:17:10;;;;;;;50.40;30.05;;;;;;;7.69;100.00;97442.25;5068921;28;20173;-57
2023/12/14 09:19:35;;;;;;;47.10;28.67;;;;;;;7.05;100.00;97327.69;5068706;28;20216;-57
2023/12/14 09:22:01;;;;;;;52.78;29.92;;;;;;;7.85;100.00;97445.31;5068872;28;20181;-57
2023/12/14 09:24:27;;;;;;;46.33;27.05;;;;;;;7.37;100.00;97354.50;5068787;28;20691;-57
2023/12/14 09:26:52;;;;;;;47.13;27.05;;;;;;;7.60;100.00;97381.94;5068680;28;20181;-57
2023/12/14 09:29:17;;;;;;;41.30;26.52;;;;;;;7.96;100.00;97435.91;5069032;28;20245;-57
2023/12/14 09:31:45;;;;;;;51.05;27.35;;;;;;;7.69;100.00;97368.38;5068674;28;20330;-57
2023/12/14 09:34:11;;;;;;;41.75;25.27;;;;;;;8.04;100.00;97415.53;5068608;28;20654;-57
2023/12/14 09:36:38;;;;;;;39.78;24.33;;;;;;;7.65;100.00;97363.59;5068552;28;20200;-57
2023/12/14 09:39:03;;;;;;;36.35;21.88;;;;;;;8.07;100.00;97411.91;5068582;28;20193;-57
2023/12/14 09:41:29;;;;;;;38.05;21.92;;;;;;;7.67;100.00;97331.66;5055012;28;20246;-56
2023/12/14 09:43:55;;;;;;;32.70;20.75;;;;;;;7.90;100.00;97359.09;5051094;28;20181;-57
2023/12/14 09:46:21;;;;;;;40.47;22.58;;;;;;;7.84;100.00;97369.84;5028452;28;20640;-57
2023/12/14 09:48:50;;;;;;;35.88;20.50;;;;;;;7.61;100.00;97323.56;5028621;28;20183;-57
2023/12/14 09:51:16;;;;;;;36.97;21.98;;;;;;;7.92;100.00;97361.56;5008595;28;20329;-57
2023/12/14 09:53:41;;;;;;;39.75;21.85;;;;;;;7.72;100.00;97334.72;5008901;28;20193;-57
2023/12/14 09:56:07;;;;;;;37.47;22.35;;;;;;;7.78;100.00;97333.44;5008894;28;20574;-57
2023/12/14 09:58:33;;;;;;;45.67;23.88;;;;;;;7.83;100.00;97327.00;5015825;28;20182;-57
2023/12/14 10:01:00;;;;;;;42.60;25.38;;;;;;;8.35;100.00;97399.47;5028570;28;20194;-57
2023/12/14 10:03:28;;;;;;;44.05;24.95;;;;;;;8.34;100.00;97389.28;5028476;28;20186;-57
2023/12/14 10:05:57;;;;;;;45.10;25.67;;;;;;;8.09;100.00;97336.16;5028368;28;20191;-57
2023/12/14 10:08:23;;;;;;;43.85;25.30;;;;;;;8.08;100.00;97336.28;5028498;28;20205;-57
2023/12/14 10:10:52;;;;;;;43.70;28.00;;;;;;;8.10;100.00;97353.25;5028287;28;20222;-57
2023/12/14 10:13:19;;;;;;;157.90;70.60;;;;;;;8.14;100.00;97362.41;5028458;28;20181;-58
2023/12/14 10:15:46;;;;;;;75.25;37.08;;;;;;;8.15;100.00;97356.31;5029414;28;20652;-57
2023/12/14 10:18:21;;;;;;;46.75;27.00;;;;;;;8.34;100.00;97390.09;5049312;28;20208;-58
2023/12/14 10:20:46;;;;;;;51.63;27.40;;;;;;;8.22;100.00;97339.47;5052213;28;20183;-57
2023/12/14 10:23:13;;;;;;;45.67;26.38;;;;;;;8.03;100.00;97298.00;5035960;28;20190;-57
2023/12/14 10:25:38;;;;;;;46.83;27.95;;;;;;;8.19;100.00;97313.94;5034558;28;20174;-57
2023/12/14 10:28:04;;;;;;;60.10;35.25;;;;;;;8.59;100.00;97355.53;5034509;28;20232;-58
2023/12/14 10:30:30;;;;;;;57.70;31.38;;;;;;;8.30;100.00;97295.94;5034357;28;20254;-57
2023/12/14 10:32:57;;;;;;;45.58;26.90;;;;;;;8.04;100.00;97226.72;5034430;28;20182;-57
2023/12/14 10:35:23;;;;;;;45.88;26.15;;;;;;;8.45;100.00;97287.00;5034330;28;20229;-57
2023/12/14 10:37:51;;;;;;;40.13;24.10;;;;;;;8.58;100.00;97310.91;5034337;28;20186;-57
2023/12/14 10:40:17;;;;;;;36.83;22.17;;;;;;;8.58;100.00;97300.59;5034291;28;20648;-57
2023/12/14 10:42:44;;;;;;;37.65;24.08;;;;;;;8.69;100.00;97313.44;5034269;28;20226;-57
2023/12/14 10:45:16;;;;;;;34.28;21.48;;;;;;;8.77;100.00;97311.09;5034140;28;20527;-58
2023/12/14 10:47:46;;;;;;;29.38;19.38;;;;;;;8.72;100.00;97302.88;5033782;28;20574;-58
2023/12/14 10:50:12;;;;;;;30.25;19.98;;;;;;;8.97;100.00;97325.78;5034040;28;20555;-58
2023/12/14 10:52:39;;;;;;;39.45;22.15;;;;;;;9.29;100.00;97349.88;5033818;28;20632;-57
2023/12/14 10:55:10;;;;;;;40.15;22.67;;;;;;;8.90;100.00;97267.91;5034129;28;20221;-57
2023/12/14 10:57:35;;;;;;;39.97;25.33;;;;;;;9.50;100.00;97350.72;5033981;28;20201;-58
2023/12/14 11:00:04;;;;;;;42.30;24.60;;;;;;;9.11;100.00;97252.47;5045408;28;20174;-58
2023/12/14 11:02:36;;;;;;;39.53;24.05;;;;;;;9.40;100.00;97305.13;5033858;28;20269;-58
2023/12/14 11:05:09;;;;;;;38.22;24.10;;;;;;;9.17;100.00;97242.47;5031354;28;20182;-57
2023/12/14 11:07:48;;;;;;;35.30;22.08;;;;;;;9.40;100.00;97268.97;5031370;28;20196;-57
2023/12/14 11:10:14;;;;;;;54.80;27.15;;;;;;;9.53;100.00;97291.09;5031316;28;20217;-58
2023/12/14 11:12:57;;;;;;;35.10;21.02;;;;;;;9.72;100.00;97304.13;5031297;28;20182;-57
2023/12/14 11:15:23;;;;;;;31.65;20.00;;;;;;;9.63;100.00;97290.19;5031220;28;20279;-58